Time;durP1;ratioP1;P1;durP2;ratioP2;P2;SDS_P1;SDS_P2;PMS_P1;PMS_P2;Temp;Humidity;BMP_temperature;BMP_pressure;BME280_temperature;BME280_humidity;BME280_pressure;Samples;Min_cycle;Max_cycle;Signal;HPM_P1;HPM_P2
2023/03/03 00:00:45;;;;;;;10.75;4.75;;;-1.60;99.90;;;;;;4999213;28;20045;-70
2023/03/03 00:03:18;;;;;;;9.73;5.28;;;-1.60;99.90;;;;;;4971793;28;1113444;-70
2023/03/03 00:05:44;;;;;;;9.45;5.22;;;-1.70;99.90;;;;;;5009777;28;20053;-70
2023/03/03 00:08:09;;;;;;;10.93;5.17;;;-1.70;99.90;;;;;;4998626;28;20109;-70
2023/03/03 00:10:36;;;;;;;12.93;5.63;;;-1.80;99.90;;;;;;5007010;28;20049;-70
2023/03/03 00:13:01;;;;;;;13.75;6.03;;;-1.80;99.90;;;;;;5013246;28;20052;-70
2023/03/03 00:15:28;;;;;;;15.73;6.63;;;-1.90;99.90;;;;;;4974186;28;20947;-70
2023/03/03 00:17:54;;;;;;;30.20;6.75;;;-1.90;99.90;;;;;;4987538;28;20065;-70
2023/03/03 00:20:37;;;;;;;25.90;8.20;;;-1.90;99.90;;;;;;4983262;28;20053;-70
2023/03/03 00:23:24;;;;;;;63.30;10.02;;;-2.00;99.90;;;;;;5006803;28;20128;-70
2023/03/03 00:25:52;;;;;;;33.92;7.85;;;-1.90;99.90;;;;;;5027306;28;20081;-70
2023/03/03 00:28:21;;;;;;;48.03;10.20;;;-2.00;99.90;;;;;;5001275;28;20042;-70
2023/03/03 00:30:47;;;;;;;40.45;9.43;;;-1.90;99.90;;;;;;4993150;28;20041;-70
2023/03/03 00:33:31;;;;;;;29.10;9.33;;;-2.00;99.90;;;;;;4987102;28;20087;-70
2023/03/03 00:36:09;;;;;;;29.08;8.70;;;-2.00;99.90;;;;;;4979571;28;20134;-70
2023/03/03 00:38:37;;;;;;;105.93;14.23;;;-2.00;99.90;;;;;;4996264;28;20041;-70
2023/03/03 00:41:15;;;;;;;29.05;9.38;;;-2.00;99.90;;;;;;5005889;28;20121;-70
2023/03/03 00:43:41;;;;;;;27.08;8.80;;;-2.00;99.90;;;;;;5005196;28;20038;-69
2023/03/03 00:46:08;;;;;;;28.27;8.57;;;-2.10;99.90;;;;;;4998542;28;20135;-69
2023/03/03 00:48:34;;;;;;;53.10;10.30;;;-2.10;99.90;;;;;;4973952;28;20054;-69
2023/03/03 00:51:05;;;;;;;167.13;22.10;;;-2.10;99.90;;;;;;4989585;28;20406;-69
2023/03/03 00:53:31;;;;;;;28.20;8.95;;;-2.20;99.90;;;;;;5004273;28;20073;-69
2023/03/03 00:55:57;;;;;;;105.90;16.40;;;-2.30;99.90;;;;;;5010410;28;20084;-70
2023/03/03 00:58:26;;;;;;;20.02;8.52;;;-2.30;99.90;;;;;;5003420;28;20048;-70
2023/03/03 01:00:53;;;;;;;41.45;9.95;;;-2.40;99.90;;;;;;5011901;28;20038;-70
2023/03/03 01:03:22;;;;;;;22.67;9.20;;;-2.40;99.90;;;;;;5014132;28;20592;-70
2023/03/03 01:05:48;;;;;;;11.25;7.95;;;-2.50;99.90;;;;;;4996978;28;20038;-70
2023/03/03 01:08:14;;;;;;;12.45;8.52;;;-2.60;99.90;;;;;;5007508;28;20041;-70
2023/03/03 01:10:50;;;;;;;12.15;8.15;;;-2.60;99.90;;;;;;5007105;28;20056;-70
2023/03/03 01:13:17;;;;;;;12.68;8.60;;;-2.60;99.90;;;;;;5006902;28;20042;-70
2023/03/03 01:15:43;;;;;;;12.60;8.88;;;-2.70;99.90;;;;;;4994579;28;20122;-70
2023/03/03 01:18:11;;;;;;;14.43;8.30;;;-2.70;99.90;;;;;;5006214;28;20046;-70
2023/03/03 01:20:37;;;;;;;12.73;8.43;;;-2.70;99.90;;;;;;4991462;28;20516;-70
2023/03/03 01:23:03;;;;;;;12.65;8.32;;;-2.70;99.90;;;;;;5011479;28;20518;-70
2023/03/03 01:25:29;;;;;;;12.87;8.67;;;-2.70;99.90;;;;;;5010884;28;20052;-70
2023/03/03 01:27:55;;;;;;;13.70;8.53;;;-2.80;99.90;;;;;;5009651;28;20067;-70
2023/03/03 01:30:21;;;;;;;12.27;7.40;;;-2.80;99.90;;;;;;5005290;28;20489;-70
2023/03/03 01:32:46;;;;;;;12.43;8.00;;;-2.80;99.90;;;;;;4988567;28;20100;-70
2023/03/03 01:35:12;;;;;;;13.57;8.10;;;-2.80;99.90;;;;;;5013302;28;20041;-70
2023/03/03 01:37:38;;;;;;;10.83;7.27;;;-2.80;99.90;;;;;;5001596;28;20037;-70
2023/03/03 01:40:06;;;;;;;13.90;7.47;;;-2.90;99.90;;;;;;4984777;28;20038;-70
2023/03/03 01:42:32;;;;;;;14.35;6.72;;;-2.90;99.90;;;;;;5010516;28;20498;-69
2023/03/03 01:45:22;;;;;;;9.30;6.47;;;-2.80;99.90;;;;;;4989143;28;20053;-69
2023/03/03 01:48:02;;;;;;;10.18;6.10;;;-2.90;99.90;;;;;;4991660;28;20041;-69
2023/03/03 01:50:33;;;;;;;9.05;5.85;;;-2.80;99.90;;;;;;5015525;28;20041;-69
2023/03/03 01:53:02;;;;;;;9.32;5.75;;;-2.80;99.90;;;;;;5006449;28;20124;-69
2023/03/03 01:55:33;;;;;;;10.70;5.55;;;-2.70;99.90;;;;;;5011835;28;20120;-69
2023/03/03 01:58:11;;;;;;;6.97;4.80;;;-2.70;99.90;;;;;;4986432;28;20049;-69
2023/03/03 02:00:40;;;;;;;7.00;4.57;;;-2.70;99.90;;;;;;5006673;28;20573;-69
2023/03/03 02:03:06;;;;;;;6.50;4.53;;;-2.70;99.90;;;;;;5015534;28;20054;-69
2023/03/03 02:05:33;;;;;;;6.70;4.43;;;-2.80;99.90;;;;;;4999532;28;20125;-69
2023/03/03 02:07:59;;;;;;;9.20;3.97;;;-2.80;99.90;;;;;;5016118;28;20081;-69
2023/03/03 02:10:25;;;;;;;6.03;3.97;;;-2.80;99.90;;;;;;4999648;28;20494;-69
2023/03/03 02:12:56;;;;;;;5.63;3.78;;;-2.80;99.90;;;;;;4997808;28;20080;-69
2023/03/03 02:15:22;;;;;;;6.05;4.07;;;-2.90;99.90;;;;;;4998718;28;20447;-69
2023/03/03 02:17:52;;;;;;;8.87;4.00;;;-2.90;99.90;;;;;;5012278;28;20085;-69
2023/03/03 02:20:32;;;;;;;6.32;3.90;;;-2.90;99.90;;;;;;5009634;28;20088;-69
2023/03/03 02:23:09;;;;;;;7.75;3.97;;;-2.90;99.90;;;;;;5005168;28;20034;-69
2023/03/03 02:25:48;;;;;;;7.43;4.22;;;-2.90;99.90;;;;;;5004622;28;20041;-69
2023/03/03 02:28:14;;;;;;;7.13;4.20;;;-2.90;99.90;;;;;;4996688;28;20037;-69
2023/03/03 02:30:40;;;;;;;7.07;4.60;;;-3.00;99.90;;;;;;4990531;28;20549;-69
2023/03/03 02:33:06;;;;;;;7.80;4.83;;;-3.00;99.90;;;;;;4967593;28;20137;-69
2023/03/03 02:35:37;;;;;;;6.63;4.78;;;-2.90;99.90;;;;;;4987959;28;20039;-69
2023/03/03 02:38:41;;;;;;;8.93;4.90;;;-3.00;99.90;;;;;;4987074;28;20046;-69
2023/03/03 02:41:37;;;;;;;8.90;4.00;;;-3.00;99.90;;;;;;4982259;28;20057;-70
2023/03/03 02:44:09;;;;;;;5.20;3.70;;;-3.00;99.90;;;;;;5007313;28;20034;-70
2023/03/03 02:46:37;;;;;;;8.02;3.72;;;-2.90;99.90;;;;;;5008305;28;20042;-70
2023/03/03 02:49:04;;;;;;;4.43;3.33;;;-2.90;99.90;;;;;;4996253;28;20057;-70
2023/03/03 02:51:31;;;;;;;4.88;3.00;;;-2.90;99.90;;;;;;5010248;28;20060;-70
2023/03/03 02:53:56;;;;;;;6.68;3.35;;;-2.90;99.90;;;;;;5000651;28;20192;-70
2023/03/03 02:56:22;;;;;;;10.50;3.77;;;-2.90;99.90;;;;;;4987604;28;20561;-70
2023/03/03 02:58:48;;;;;;;5.20;2.83;;;-2.90;99.90;;;;;;4976205;28;20092;-70
2023/03/03 03:01:13;;;;;;;8.13;3.10;;;-2.90;99.90;;;;;;5003269;28;20037;-69
2023/03/03 03:03:39;;;;;;;5.53;2.73;;;-2.90;99.90;;;;;;4996858;28;20049;-69
2023/03/03 03:06:05;;;;;;;6.43;3.13;;;-2.80;99.90;;;;;;4986567;28;20049;-69
2023/03/03 03:08:31;;;;;;;6.03;2.70;;;-2.80;99.90;;;;;;4987287;28;20046;-69
2023/03/03 03:10:57;;;;;;;6.17;3.07;;;-2.80;99.90;;;;;;4997238;28;20046;-69
2023/03/03 03:13:23;;;;;;;7.43;2.93;;;-2.80;99.90;;;;;;4997589;28;20042;-69
2023/03/03 03:15:49;;;;;;;5.22;2.70;;;-2.80;99.90;;;;;;4999517;28;20038;-69
2023/03/03 03:18:15;;;;;;;7.63;2.77;;;-2.80;99.90;;;;;;4988948;28;20045;-69
2023/03/03 03:20:42;;;;;;;5.03;2.40;;;-2.80;99.90;;;;;;5010878;28;20038;-70
2023/03/03 03:23:08;;;;;;;6.15;2.88;;;-2.70;99.90;;;;;;4986618;28;20034;-70
2023/03/03 03:25:36;;;;;;;4.47;2.15;;;-2.70;99.90;;;;;;5006296;28;20085;-70
2023/03/03 03:28:02;;;;;;;6.85;2.35;;;-2.70;99.90;;;;;;4995889;28;20103;-70
2023/03/03 03:30:28;;;;;;;6.10;2.17;;;-2.70;99.90;;;;;;4988737;28;20121;-70
2023/03/03 03:32:53;;;;;;;6.33;3.27;;;-2.70;99.90;;;;;;5002809;28;20193;-70
2023/03/03 03:35:19;;;;;;;8.47;3.17;;;-2.60;99.90;;;;;;4981630;28;20049;-70
2023/03/03 03:37:45;;;;;;;6.50;2.27;;;-2.60;99.90;;;;;;5006384;28;20092;-70
2023/03/03 03:40:11;;;;;;;5.07;1.80;;;-2.60;99.90;;;;;;4997813;28;20704;-69
2023/03/03 03:42:38;;;;;;;9.05;2.75;;;-2.60;99.90;;;;;;4994278;28;20053;-69
2023/03/03 03:45:04;;;;;;;5.93;2.67;;;-2.60;99.90;;;;;;4985930;28;20538;-69
2023/03/03 03:47:30;;;;;;;6.63;2.15;;;-2.60;99.90;;;;;;4996962;28;20152;-70
2023/03/03 03:49:56;;;;;;;5.33;2.33;;;-2.50;99.90;;;;;;5000266;28;20069;-70
2023/03/03 03:52:21;;;;;;;7.80;2.60;;;-2.50;99.90;;;;;;4991722;28;20113;-70
2023/03/03 03:54:47;;;;;;;5.77;2.60;;;-2.50;99.90;;;;;;4977466;28;20049;-70
2023/03/03 03:57:13;;;;;;;7.27;2.40;;;-2.50;99.90;;;;;;5003507;28;20038;-70
2023/03/03 03:59:38;;;;;;;7.77;2.40;;;-2.50;99.90;;;;;;4994085;28;20038;-70
2023/03/03 04:02:04;;;;;;;11.53;2.63;;;-2.50;99.90;;;;;;5000426;28;20055;-70
2023/03/03 04:04:30;;;;;;;3.13;2.13;;;-2.50;99.90;;;;;;4980705;28;20049;-69
2023/03/03 04:06:56;;;;;;;7.33;2.33;;;-2.60;99.90;;;;;;4995519;28;20045;-71
2023/03/03 04:09:21;;;;;;;8.60;2.30;;;-2.60;99.90;;;;;;4988664;28;20102;-70
2023/03/03 04:11:47;;;;;;;6.73;2.40;;;-2.60;99.90;;;;;;5007130;28;20053;-70
2023/03/03 04:14:13;;;;;;;2.43;1.97;;;-2.60;99.90;;;;;;5009450;28;20403;-70
2023/03/03 04:16:39;;;;;;;4.73;2.40;;;-2.60;99.90;;;;;;4995630;28;20077;-70
2023/03/03 04:19:04;;;;;;;5.60;2.50;;;-2.70;99.90;;;;;;5011220;28;20049;-70
2023/03/03 04:21:30;;;;;;;4.47;1.90;;;-2.70;99.90;;;;;;5004562;28;20049;-70
2023/03/03 04:23:56;;;;;;;9.57;2.07;;;-2.70;99.90;;;;;;4995331;28;20038;-70
2023/03/03 04:26:21;;;;;;;5.13;2.90;;;-2.70;99.90;;;;;;5012771;28;20053;-70
2023/03/03 04:28:47;;;;;;;6.27;2.90;;;-2.80;99.90;;;;;;5005180;28;20053;-70
2023/03/03 04:31:13;;;;;;;4.87;1.80;;;-2.80;99.90;;;;;;5009291;28;20057;-70
2023/03/03 04:33:38;;;;;;;5.67;2.17;;;-2.80;99.90;;;;;;4992953;28;20046;-70
2023/03/03 04:36:05;;;;;;;3.83;2.57;;;-2.90;99.90;;;;;;5017230;28;20042;-70
2023/03/03 04:38:30;;;;;;;6.10;2.47;;;-2.90;99.90;;;;;;4992342;28;20041;-70
2023/03/03 04:40:56;;;;;;;6.03;2.37;;;-2.90;99.90;;;;;;5006603;28;20069;-70
2023/03/03 04:43:22;;;;;;;3.10;2.27;;;-2.90;99.90;;;;;;4976042;28;20038;-70
2023/03/03 04:45:48;;;;;;;6.67;2.50;;;-2.90;99.90;;;;;;5006520;28;20293;-70
2023/03/03 04:48:14;;;;;;;3.70;2.23;;;-3.00;99.90;;;;;;5013653;28;20045;-70
2023/03/03 04:50:41;;;;;;;6.40;2.60;;;-3.00;99.90;;;;;;5018287;28;20046;-70
2023/03/03 04:53:07;;;;;;;7.15;2.03;;;-3.10;99.90;;;;;;5021183;28;20056;-70
2023/03/03 04:55:35;;;;;;;7.70;2.07;;;-3.10;99.90;;;;;;5007599;28;20498;-70
2023/03/03 04:58:01;;;;;;;5.20;2.50;;;-3.10;99.90;;;;;;4951277;28;20042;-70
2023/03/03 05:00:27;;;;;;;5.57;1.50;;;-3.10;99.90;;;;;;4972062;28;20634;-70
2023/03/03 05:02:52;;;;;;;7.20;1.83;;;-3.10;99.90;;;;;;4975407;28;20050;-70
2023/03/03 05:05:18;;;;;;;5.60;2.10;;;-3.00;99.90;;;;;;4974621;28;20069;-70
2023/03/03 05:07:44;;;;;;;5.17;2.03;;;-3.00;99.90;;;;;;4993837;28;20034;-70
2023/03/03 05:10:10;;;;;;;4.90;1.80;;;-3.00;99.90;;;;;;5002140;28;20145;-70
2023/03/03 05:12:36;;;;;;;7.80;2.15;;;-2.90;99.90;;;;;;4989458;28;20038;-70
2023/03/03 05:15:02;;;;;;;6.10;2.42;;;-2.80;99.90;;;;;;5001845;28;20096;-70
2023/03/03 05:17:28;;;;;;;7.03;1.88;;;-2.70;99.90;;;;;;4999651;28;20070;-70
2023/03/03 05:19:56;;;;;;;5.17;1.90;;;-2.70;99.90;;;;;;5004882;28;20077;-70
2023/03/03 05:22:22;;;;;;;5.50;1.90;;;-2.70;99.90;;;;;;4998508;28;20406;-70
2023/03/03 05:24:48;;;;;;;7.07;1.92;;;-2.70;99.90;;;;;;5008410;28;20053;-70
2023/03/03 05:27:14;;;;;;;6.73;1.80;;;-2.60;99.90;;;;;;5002318;28;20033;-70
2023/03/03 05:29:40;;;;;;;3.75;1.92;;;-2.60;99.90;;;;;;5006099;28;20565;-70
2023/03/03 05:32:06;;;;;;;6.30;1.73;;;-2.60;99.90;;;;;;4992865;28;20046;-70
2023/03/03 05:34:32;;;;;;;4.53;1.50;;;-2.60;99.90;;;;;;5017642;28;20283;-70
2023/03/03 05:36:58;;;;;;;5.23;1.80;;;-2.60;99.90;;;;;;4994732;28;20097;-70
2023/03/03 05:39:23;;;;;;;9.50;1.73;;;-2.60;99.90;;;;;;5012806;28;20335;-70
2023/03/03 05:41:49;;;;;;;5.87;1.73;;;-2.60;99.90;;;;;;5013232;28;20041;-70
2023/03/03 05:44:15;;;;;;;6.53;1.80;;;-2.50;99.90;;;;;;4993169;28;20038;-70
2023/03/03 05:46:41;;;;;;;5.00;1.63;;;-2.50;99.90;;;;;;4991576;28;20093;-70
2023/03/03 05:49:07;;;;;;;5.13;1.80;;;-2.40;99.90;;;;;;5006700;28;20391;-70
2023/03/03 05:51:33;;;;;;;6.30;2.03;;;-2.40;99.90;;;;;;4991871;28;20037;-70
2023/03/03 05:53:58;;;;;;;5.53;1.87;;;-2.40;99.90;;;;;;5006618;28;20038;-70
2023/03/03 05:56:24;;;;;;;7.47;1.97;;;-2.40;99.90;;;;;;4993616;28;20069;-70
2023/03/03 05:58:50;;;;;;;7.10;1.80;;;-2.50;99.90;;;;;;5005449;28;20038;-70
2023/03/03 06:01:16;;;;;;;5.07;1.80;;;-2.50;99.90;;;;;;5016144;28;20156;-70
2023/03/03 06:03:41;;;;;;;7.50;1.90;;;-2.50;99.90;;;;;;5018284;28;20137;-70
2023/03/03 06:06:08;;;;;;;8.33;2.13;;;-2.50;99.90;;;;;;4989125;28;20049;-70
2023/03/03 06:08:33;;;;;;;8.18;1.70;;;-2.50;99.90;;;;;;5012298;28;20402;-70
2023/03/03 06:10:59;;;;;;;3.07;1.60;;;-2.50;99.90;;;;;;4997209;28;20140;-70
2023/03/03 06:13:26;;;;;;;5.90;1.60;;;-2.50;99.90;;;;;;5009585;28;20110;-70
2023/03/03 06:15:51;;;;;;;6.38;1.80;;;-2.50;99.90;;;;;;5001857;28;20054;-70
2023/03/03 06:18:17;;;;;;;5.30;2.07;;;-2.60;99.90;;;;;;5018138;28;20100;-70
2023/03/03 06:20:43;;;;;;;7.83;1.80;;;-2.60;99.90;;;;;;4979139;28;20448;-70
2023/03/03 06:23:08;;;;;;;7.17;2.30;;;-2.60;99.90;;;;;;5016636;28;20085;-70
2023/03/03 06:25:34;;;;;;;11.47;2.10;;;-2.60;99.90;;;;;;4996663;28;20458;-70
2023/03/03 06:28:01;;;;;;;4.67;1.80;;;-2.60;99.90;;;;;;4999833;28;20047;-70
2023/03/03 06:30:27;;;;;;;5.72;2.10;;;-2.60;99.90;;;;;;4997648;28;20335;-70
2023/03/03 06:32:53;;;;;;;8.30;2.50;;;-2.60;99.90;;;;;;4988610;28;20133;-70
2023/03/03 06:35:19;;;;;;;9.23;3.08;;;-2.60;99.90;;;;;;5004936;28;20351;-70
2023/03/03 06:37:45;;;;;;;8.63;3.87;;;-2.60;99.90;;;;;;4992671;28;20433;-70
2023/03/03 06:40:11;;;;;;;7.67;3.33;;;-2.60;99.90;;;;;;4997038;28;20289;-70
2023/03/03 06:42:37;;;;;;;6.22;2.67;;;-2.60;99.90;;;;;;5005178;28;20042;-70
2023/03/03 06:45:03;;;;;;;7.37;2.80;;;-2.60;99.90;;;;;;4979993;28;20040;-70
2023/03/03 06:47:29;;;;;;;6.05;2.80;;;-2.60;99.90;;;;;;4997717;28;20045;-70
2023/03/03 06:49:54;;;;;;;9.10;2.80;;;-2.60;99.90;;;;;;4992398;28;20038;-70
2023/03/03 06:52:24;;;;;;;6.93;2.30;;;-2.50;99.90;;;;;;5010516;28;20080;-70
2023/03/03 06:54:54;;;;;;;5.63;2.90;;;-2.50;99.90;;;;;;4990952;28;20130;-70
2023/03/03 06:57:28;;;;;;;5.20;2.55;;;-2.40;99.90;;;;;;5006955;28;20075;-70
2023/03/03 07:00:22;;;;;;;7.22;2.50;;;-2.40;99.90;;;;;;4996495;28;20091;-70
2023/03/03 07:02:57;;;;;;;6.82;2.60;;;-2.30;99.90;;;;;;4998541;28;20046;-70
2023/03/03 07:05:23;;;;;;;;;;;-2.20;99.90;;;;;;5008593;28;20303;-70
2023/03/03 07:07:48;;;;;;;8.80;2.30;;;-2.10;99.90;;;;;;4987879;28;19924;-70
2023/03/03 07:10:29;;;;;;;7.80;2.33;;;-2.00;99.90;;;;;;5008501;28;20293;-70
2023/03/03 07:13:04;;;;;;;9.50;3.42;;;-1.90;99.90;;;;;;4998364;28;20053;-70
2023/03/03 07:15:34;;;;;;;4.82;2.42;;;-1.70;99.90;;;;;;4986273;28;20097;-70
2023/03/03 07:18:01;;;;;;;7.55;2.60;;;-1.60;99.90;;;;;;4974316;28;20076;-70
2023/03/03 07:20:37;;;;;;;6.03;2.90;;;-1.50;99.90;;;;;;5005448;28;20077;-70
2023/03/03 07:23:22;;;;;;;7.85;2.92;;;-1.40;99.90;;;;;;5004624;28;20045;-70
2023/03/03 07:25:47;;;;;;;9.13;2.72;;;-1.40;99.90;;;;;;5005996;28;20049;-70
2023/03/03 07:28:19;;;;;;;6.67;2.50;;;-1.30;99.90;;;;;;4975941;28;20137;-70
2023/03/03 07:30:45;;;;;;;9.50;2.50;;;-1.20;99.90;;;;;;5007558;28;20054;-70
2023/03/03 07:33:25;;;;;;;6.97;2.87;;;-1.10;99.90;;;;;;4986111;28;20045;-70
2023/03/03 07:35:53;;;;;;;6.60;3.53;;;-1.00;99.90;;;;;;4988564;28;20038;-70
2023/03/03 07:38:35;;;;;;;9.40;4.15;;;-0.90;99.90;;;;;;5007322;28;20141;-70
2023/03/03 07:41:07;;;;;;;12.85;3.40;;;-0.80;99.90;;;;;;5006305;28;20371;-70
2023/03/03 07:43:53;;;;;;;8.50;3.42;;;-0.60;99.90;;;;;;5005077;28;20050;-70
2023/03/03 07:46:27;;;;;;;;;;;-0.50;99.90;;;;;;5010575;28;20041;-70
2023/03/03 07:48:55;;;;;;;8.23;3.03;;;-0.40;99.90;;;;;;5001745;28;19964;-70
2023/03/03 07:51:35;;;;;;;8.95;2.40;;;-0.30;99.90;;;;;;4995596;28;20049;-70
2023/03/03 07:54:24;;;;;;;9.65;2.85;;;-0.20;99.90;;;;;;5008095;28;20037;-70
2023/03/03 07:56:49;;;;;;;7.63;2.67;;;-0.10;99.90;;;;;;4980299;28;20073;-70
2023/03/03 07:59:21;;;;;;;5.13;2.43;;;0.10;99.90;;;;;;4987266;28;20030;-70
2023/03/03 08:01:51;;;;;;;9.27;3.08;;;0.20;99.90;;;;;;5005906;28;20493;-70
2023/03/03 08:04:28;;;;;;;11.15;2.78;;;0.30;99.90;;;;;;5005339;28;20046;-70
2023/03/03 08:06:59;;;;;;;9.48;2.70;;;0.50;99.90;;;;;;4988969;28;20046;-70
2023/03/03 08:09:42;;;;;;;8.07;2.40;;;0.70;99.90;;;;;;5007637;28;20084;-71
2023/03/03 08:12:26;;;;;;;6.47;2.70;;;0.90;99.90;;;;;;5012525;28;20411;-71
2023/03/03 08:14:54;;;;;;;12.68;3.80;;;1.00;99.90;;;;;;5011316;28;20044;-71
2023/03/03 08:17:26;;;;;;;4.10;2.40;;;1.10;99.90;;;;;;5009163;28;20124;-71
2023/03/03 08:19:54;;;;;;;6.35;3.10;;;1.30;99.90;;;;;;4998012;28;20040;-71
2023/03/03 08:22:35;;;;;;;10.25;2.58;;;1.40;99.90;;;;;;5015694;28;20119;-71
2023/03/03 08:25:01;;;;;;;9.93;4.20;;;1.50;99.90;;;;;;5015858;28;20117;-71
2023/03/03 08:27:27;;;;;;;6.95;2.58;;;1.60;99.90;;;;;;4980317;28;20045;-71
2023/03/03 08:29:53;;;;;;;11.80;3.00;;;1.80;99.90;;;;;;5011491;28;20085;-71
2023/03/03 08:32:18;;;;;;;4.43;2.10;;;1.90;99.90;;;;;;5014530;28;20061;-71
2023/03/03 08:34:44;;;;;;;8.23;2.90;;;2.00;99.90;;;;;;4990606;28;20046;-71
2023/03/03 08:37:10;;;;;;;7.93;2.20;;;2.20;99.90;;;;;;5008972;28;20038;-71
2023/03/03 08:39:35;;;;;;;6.40;2.60;;;2.30;99.90;;;;;;5004154;28;20055;-71
2023/03/03 08:42:01;;;;;;;10.63;2.50;;;2.50;99.90;;;;;;5013386;28;20041;-71
2023/03/03 08:44:27;;;;;;;7.30;1.90;;;2.60;99.90;;;;;;5004198;28;20215;-71
2023/03/03 08:46:52;;;;;;;9.03;2.13;;;2.80;99.90;;;;;;5017452;28;20052;-71
2023/03/03 08:49:20;;;;;;;5.87;1.97;;;3.00;99.90;;;;;;5016200;28;20103;-71
2023/03/03 08:51:46;;;;;;;3.35;1.98;;;3.20;99.90;;;;;;5015230;28;20037;-71
2023/03/03 08:54:12;;;;;;;5.70;2.20;;;3.50;99.90;;;;;;5012498;28;20043;-71
2023/03/03 08:56:37;;;;;;;8.20;3.28;;;3.80;99.90;;;;;;4985432;28;20304;-71
2023/03/03 08:59:03;;;;;;;7.10;2.10;;;4.00;99.90;;;;;;5014718;28;20092;-71
2023/03/03 09:01:33;;;;;;;8.53;2.10;;;4.20;99.90;;;;;;5014232;28;20454;-71
2023/03/03 09:03:59;;;;;;;7.82;1.80;;;4.40;99.90;;;;;;4993409;28;20113;-71
2023/03/03 09:06:25;;;;;;;6.43;1.20;;;4.60;99.90;;;;;;5009949;28;20109;-71
2023/03/03 09:08:50;;;;;;;6.37;0.80;;;4.80;99.90;;;;;;5015386;28;20163;-71
2023/03/03 09:11:25;;;;;;;9.80;1.17;;;5.00;99.90;;;;;;5007237;28;20072;-71
2023/03/03 09:13:54;;;;;;;4.25;1.08;;;5.20;99.90;;;;;;4993579;28;20080;-71
2023/03/03 09:16:21;;;;;;;2.55;0.70;;;5.30;99.90;;;;;;5018932;28;20045;-71
2023/03/03 09:18:46;;;;;;;2.45;0.43;;;5.40;99.90;;;;;;5007435;28;20061;-71
2023/03/03 09:21:22;;;;;;;4.30;0.50;;;5.50;99.90;;;;;;5008941;28;20421;-71
2023/03/03 09:23:56;;;;;;;3.83;1.33;;;5.70;99.90;;;;;;5003318;28;20078;-71
2023/03/03 09:26:45;;;;;;;2.97;0.88;;;5.90;99.90;;;;;;5002014;28;20041;-71
2023/03/03 09:29:14;;;;;;;3.92;1.05;;;6.20;99.90;;;;;;5016088;28;20223;-71
2023/03/03 09:31:46;;;;;;;5.30;0.88;;;6.40;99.90;;;;;;5007916;28;20168;-71
2023/03/03 09:34:21;;;;;;;5.85;0.80;;;6.60;99.90;;;;;;5030437;28;20493;-71
2023/03/03 09:36:48;;;;;;;2.47;0.63;;;6.70;99.90;;;;;;5011157;28;20445;-71
2023/03/03 09:39:17;;;;;;;4.63;0.68;;;6.80;99.90;;;;;;5014249;28;20405;-71
2023/03/03 09:41:58;;;;;;;8.75;0.88;;;6.90;99.90;;;;;;4983409;28;20133;-71
2023/03/03 09:44:40;;;;;;;4.18;0.47;;;7.00;99.90;;;;;;5010815;28;20132;-71
2023/03/03 09:47:34;;;;;;;3.38;0.40;;;7.20;99.90;;;;;;5011813;28;20437;-72
2023/03/03 09:50:21;;;;;;;2.65;0.30;;;7.30;99.90;;;;;;5004976;28;20041;-71
2023/03/03 09:53:10;;;;;;;5.28;0.43;;;7.40;99.90;;;;;;4993594;28;20042;-71
2023/03/03 09:55:41;;;;;;;2.47;0.35;;;7.30;99.90;;;;;;5010986;28;20042;-71
2023/03/03 09:58:36;;;;;;;1.45;0.35;;;7.30;99.90;;;;;;4998124;28;20049;-71
2023/03/03 10:01:14;;;;;;;3.03;0.30;;;7.30;99.90;;;;;;5004006;28;20054;-71
2023/03/03 10:03:55;;;;;;;3.10;0.40;;;7.40;99.90;;;;;;5002905;28;20058;-71
2023/03/03 10:06:48;;;;;;;2.63;0.40;;;7.50;99.90;;;;;;5002058;28;20130;-71
2023/03/03 10:09:32;;;;;;;4.97;0.50;;;7.70;99.90;;;;;;4985074;28;20140;-71
2023/03/03 10:12:08;;;;;;;4.63;0.28;;;7.90;99.90;;;;;;5016223;28;20136;-71
2023/03/03 10:14:49;;;;;;;3.03;0.20;;;7.90;99.90;;;;;;5005503;28;20049;-71
2023/03/03 10:17:33;;;;;;;1.98;0.30;;;7.80;99.90;;;;;;5024217;28;20045;-71
2023/03/03 10:20:20;;;;;;;2.03;0.38;;;7.80;99.90;;;;;;5005570;28;20112;-71
2023/03/03 10:22:53;;;;;;;1.77;0.22;;;7.80;99.90;;;;;;5007949;28;20038;-71
2023/03/03 10:25:41;;;;;;;1.50;0.40;;;7.80;99.90;;;;;;5018371;28;20065;-71
2023/03/03 10:28:18;;;;;;;1.00;0.20;;;7.70;99.90;;;;;;5003955;28;20045;-71
2023/03/03 10:31:19;;;;;;;1.65;0.20;;;7.70;99.90;;;;;;5001844;28;20048;-71
2023/03/03 10:33:59;;;;;;;5.55;0.50;;;7.80;99.90;;;;;;5014009;28;20133;-71
2023/03/03 10:37:03;;;;;;;2.65;0.50;;;7.80;99.90;;;;;;5007430;28;20280;-71
2023/03/03 10:39:56;;;;;;;2.28;0.45;;;7.80;99.90;;;;;;5010164;28;20049;-71
2023/03/03 10:42:25;;;;;;;3.28;0.30;;;7.80;99.90;;;;;;5019943;28;20029;-71
2023/03/03 10:45:21;;;;;;;2.88;0.40;;;7.70;99.90;;;;;;4982280;28;20053;-71
2023/03/03 10:48:15;;;;;;;4.78;0.45;;;7.80;99.90;;;;;;5012243;28;20033;-71
2023/03/03 10:50:59;;;;;;;2.45;0.60;;;7.80;99.90;;;;;;5013872;28;20046;-71
2023/03/03 10:53:52;;;;;;;0.70;0.20;;;7.70;99.90;;;;;;4995159;28;20126;-71
2023/03/03 10:56:36;;;;;;;3.97;0.90;;;7.60;99.90;;;;;;4993543;28;20438;-72
2023/03/03 10:59:20;;;;;;;1.33;0.38;;;7.60;99.90;;;;;;5015239;28;21072;-72
2023/03/03 11:01:55;;;;;;;2.47;0.43;;;7.60;99.90;;;;;;4999024;28;20034;-72
2023/03/03 11:04:45;;;;;;;5.82;0.40;;;7.70;99.90;;;;;;5003004;28;20045;-72
2023/03/03 11:07:18;;;;;;;5.43;0.30;;;7.70;99.90;;;;;;5005532;28;20124;-72
2023/03/03 11:09:58;;;;;;;2.40;0.20;;;7.70;99.90;;;;;;4993867;28;20137;-72
2023/03/03 11:12:36;;;;;;;4.68;0.40;;;7.70;99.90;;;;;;5006078;28;20046;-72
2023/03/03 11:15:32;;;;;;;2.70;0.50;;;7.60;99.90;;;;;;5021713;28;20125;-71
2023/03/03 11:18:26;;;;;;;1.40;0.30;;;7.60;99.90;;;;;;5014781;28;20080;-72
2023/03/03 11:21:26;;;;;;;2.35;0.40;;;7.70;99.90;;;;;;5000314;28;20076;-72
2023/03/03 11:24:28;;;;;;;3.58;0.20;;;7.90;99.90;;;;;;5010003;28;20058;-72
2023/03/03 11:27:15;;;;;;;3.85;0.35;;;8.20;99.90;;;;;;4997220;28;20057;-71
2023/03/03 11:30:23;;;;;;;3.30;0.43;;;8.20;99.90;;;;;;4994201;28;20362;-71
2023/03/03 11:32:53;;;;;;;2.47;0.43;;;8.00;99.90;;;;;;4989955;28;20104;-72
2023/03/03 11:35:43;;;;;;;3.97;0.60;;;8.00;99.90;;;;;;5013086;28;20037;-71
2023/03/03 11:38:32;;;;;;;3.25;0.40;;;8.10;99.90;;;;;;4995251;28;20046;-71
2023/03/03 11:41:24;;;;;;;3.45;0.70;;;8.20;99.90;;;;;;5010711;28;20048;-72
2023/03/03 11:44:15;;;;;;;2.13;0.38;;;8.20;99.90;;;;;;5010831;28;20049;-72
2023/03/03 11:46:50;;;;;;;4.78;0.40;;;8.20;99.90;;;;;;5018660;28;20049;-72
2023/03/03 11:49:48;;;;;;;2.08;0.40;;;8.30;99.90;;;;;;5006475;28;20103;-72
2023/03/03 11:52:44;;;;;;;6.03;0.43;;;8.40;99.90;;;;;;4972832;28;20149;-72
2023/03/03 11:55:31;;;;;;;4.00;0.43;;;8.50;99.90;;;;;;5006798;28;20065;-72
2023/03/03 11:58:49;;;;;;;5.72;0.50;;;8.50;99.90;;;;;;5020976;28;20044;-72
2023/03/03 12:01:21;;;;;;;6.57;0.70;;;8.60;99.90;;;;;;4971376;28;20210;-72
2023/03/03 12:04:08;;;;;;;3.03;0.40;;;8.60;99.90;;;;;;5000467;28;20129;-72
2023/03/03 12:07:05;;;;;;;5.15;0.70;;;8.60;99.90;;;;;;5009342;28;20049;-71
2023/03/03 12:09:50;;;;;;;9.68;0.80;;;8.60;99.90;;;;;;5013034;28;20077;-71
2023/03/03 12:12:31;;;;;;;5.30;0.52;;;8.50;99.90;;;;;;4997234;28;20037;-72
2023/03/03 12:15:36;;;;;;;5.90;0.55;;;8.40;99.90;;;;;;5016533;28;20050;-72
2023/03/03 12:18:41;;;;;;;2.83;0.80;;;8.30;99.90;;;;;;4997880;28;20053;-72
2023/03/03 12:21:12;;;;;;;7.18;0.88;;;8.50;99.90;;;;;;4992612;28;20045;-72
2023/03/03 12:24:12;;;;;;;6.38;0.85;;;8.80;99.90;;;;;;5000062;28;20045;-72
2023/03/03 12:26:59;;;;;;;6.13;0.75;;;9.00;99.90;;;;;;5004742;28;20042;-72
2023/03/03 12:29:35;;;;;;;6.15;0.80;;;8.90;99.90;;;;;;5009530;28;20034;-72
2023/03/03 12:32:04;;;;;;;8.98;0.90;;;8.90;99.90;;;;;;4990863;28;20046;-72
2023/03/03 12:34:56;;;;;;;5.68;1.48;;;8.90;99.90;;;;;;5005788;28;20095;-72
2023/03/03 12:37:46;;;;;;;9.32;0.80;;;9.00;99.90;;;;;;4992702;28;20112;-72
2023/03/03 12:40:18;;;;;;;10.15;1.88;;;8.90;99.90;;;;;;5006755;28;20037;-72
2023/03/03 12:43:29;;;;;;;4.88;0.80;;;8.90;99.90;;;;;;5006314;28;20129;-72
2023/03/03 12:46:20;;;;;;;7.78;0.75;;;8.80;99.90;;;;;;4986085;28;20050;-72
2023/03/03 12:48:46;;;;;;;5.03;1.10;;;8.70;99.90;;;;;;5004024;28;20175;-72
2023/03/03 12:51:45;;;;;;;10.00;1.38;;;8.50;99.90;;;;;;4983917;28;20531;-72
2023/03/03 12:54:29;;;;;;;9.20;2.08;;;8.40;99.90;;;;;;5006032;28;20104;-72
2023/03/03 12:57:19;;;;;;;8.05;1.48;;;8.30;99.90;;;;;;5007571;28;20050;-71
2023/03/03 13:00:07;;;;;;;5.88;1.02;;;8.10;99.90;;;;;;4997839;28;20041;-71
2023/03/03 13:02:45;;;;;;;8.48;1.30;;;8.00;99.90;;;;;;4996596;28;20069;-71
2023/03/03 13:05:20;;;;;;;6.68;0.90;;;8.10;99.90;;;;;;5006524;28;20045;-71
2023/03/03 13:07:58;;;;;;;11.32;1.20;;;8.40;99.90;;;;;;5010328;28;20490;-71
2023/03/03 13:10:33;;;;;;;7.30;0.85;;;8.60;99.20;;;;;;4992297;28;20093;-71
2023/03/03 13:13:09;;;;;;;8.90;1.33;;;8.60;99.30;;;;;;4991551;28;20050;-71
2023/03/03 13:16:11;;;;;;;13.30;2.05;;;8.60;98.80;;;;;;5010265;28;20131;-71
2023/03/03 13:18:55;;;;;;;9.13;1.50;;;8.60;99.70;;;;;;4997105;28;20259;-71